createdAt,value
2023-05-05T00:00:59.207Z,6.60
2023-05-05T00:03:26.908Z,7.60
2023-05-05T00:05:54.946Z,6.00
2023-05-05T00:08:22.526Z,6.00
2023-05-05T00:10:50.718Z,7.00
2023-05-05T00:13:19.196Z,6.80
2023-05-05T00:15:46.790Z,5.20
2023-05-05T00:18:14.366Z,6.50
2023-05-05T00:20:42.095Z,7.40
2023-05-05T00:23:09.696Z,8.00
2023-05-05T00:25:37.471Z,7.00
2023-05-05T00:28:05.081Z,5.50
2023-05-05T00:30:33.041Z,9.25
2023-05-05T00:33:00.680Z,7.50
2023-05-05T00:35:28.618Z,6.20
2023-05-05T00:37:56.360Z,5.50
2023-05-05T00:40:23.976Z,11.25
2023-05-05T00:42:51.827Z,9.75
2023-05-05T00:45:19.410Z,7.50
2023-05-05T00:47:47.128Z,7.00
2023-05-05T00:50:14.795Z,7.00
2023-05-05T00:52:42.358Z,7.75
2023-05-05T00:55:10.253Z,7.00
2023-05-05T00:57:41.176Z,7.25
2023-05-05T01:00:10.011Z,9.00
2023-05-05T01:02:37.796Z,7.50
2023-05-05T01:05:05.927Z,7.50
2023-05-05T01:07:33.891Z,8.00
2023-05-05T01:10:18.013Z,8.00
2023-05-05T01:12:47.657Z,8.50
2023-05-05T01:15:15.233Z,9.50
2023-05-05T01:17:43.533Z,7.50
2023-05-05T01:20:11.243Z,6.00
2023-05-05T01:22:38.978Z,12.50
2023-05-05T01:25:06.790Z,5.50
2023-05-05T01:27:34.501Z,8.50
2023-05-05T01:30:02.240Z,9.25
2023-05-05T01:32:29.820Z,6.50
2023-05-05T01:34:57.493Z,7.00
2023-05-05T01:37:25.056Z,3.50
2023-05-05T01:39:52.631Z,6.00
2023-05-05T01:42:20.668Z,8.00
2023-05-05T01:44:48.191Z,8.00
2023-05-05T01:47:15.748Z,4.00
2023-05-05T01:49:43.356Z,8.00
2023-05-05T01:52:10.868Z,7.50
2023-05-05T01:54:38.801Z,7.50
2023-05-05T01:57:06.366Z,6.50
2023-05-05T01:59:33.958Z,6.00
2023-05-05T02:02:02.997Z,7.00
2023-05-05T02:04:31.360Z,5.75
2023-05-05T02:06:59.336Z,7.50
2023-05-05T02:09:26.932Z,6.25
2023-05-05T02:11:54.525Z,7.50
2023-05-05T02:14:22.357Z,4.00
2023-05-05T02:16:49.885Z,6.00
2023-05-05T02:19:17.479Z,7.00
2023-05-05T02:21:45.104Z,7.00
2023-05-05T02:24:12.928Z,9.00
2023-05-05T02:26:40.530Z,3.25
2023-05-05T02:29:08.535Z,8.50
2023-05-05T02:31:36.505Z,9.00
2023-05-05T02:34:04.171Z,7.00
2023-05-05T02:36:31.691Z,9.25
2023-05-05T02:38:59.382Z,7.25
2023-05-05T02:41:26.949Z,10.00
2023-05-05T02:43:55.154Z,7.50
2023-05-05T02:46:23.019Z,9.50
2023-05-05T02:48:50.689Z,8.50
2023-05-05T02:51:18.430Z,8.00
2023-05-05T02:53:45.974Z,9.00
2023-05-05T02:56:13.945Z,9.25
2023-05-05T02:58:42.662Z,9.50
2023-05-05T03:01:10.359Z,6.25
2023-05-05T03:03:38.215Z,10.00
2023-05-05T03:06:05.978Z,9.50
2023-05-05T03:08:33.945Z,7.25
2023-05-05T03:11:01.585Z,9.75
2023-05-05T03:13:29.180Z,6.50
2023-05-05T03:15:56.887Z,7.50
2023-05-05T03:18:24.553Z,7.00
2023-05-05T03:20:52.528Z,10.50
2023-05-05T03:23:21.160Z,9.50
2023-05-05T03:25:48.766Z,10.00
2023-05-05T03:28:17.171Z,8.50
2023-05-05T03:30:44.710Z,7.00
2023-05-05T03:33:12.650Z,9.75
2023-05-05T03:35:40.277Z,9.00
2023-05-05T03:38:07.855Z,8.00
2023-05-05T03:40:43.398Z,10.00
2023-05-05T03:43:12.013Z,4.00
2023-05-05T03:45:40.067Z,10.50
2023-05-05T03:48:09.803Z,9.75
2023-05-05T03:50:37.724Z,13.25
2023-05-05T03:53:05.324Z,12.50
2023-05-05T03:55:32.885Z,9.50
2023-05-05T03:58:00.910Z,9.00
2023-05-05T04:00:28.534Z,9.00
2023-05-05T04:02:56.377Z,12.00
2023-05-05T04:05:24.224Z,11.25
2023-05-05T04:07:51.837Z,14.00
2023-05-05T04:10:19.790Z,17.00
2023-05-05T04:12:47.523Z,13.50
2023-05-05T04:15:15.365Z,13.75
2023-05-05T04:17:42.998Z,10.00
2023-05-05T04:20:10.783Z,12.50
2023-05-05T04:22:38.875Z,10.00
2023-05-05T04:25:06.730Z,12.25
2023-05-05T04:27:34.312Z,16.50
2023-05-05T04:30:01.919Z,10.00
2023-05-05T04:32:29.870Z,14.00
2023-05-05T04:34:57.715Z,13.00
2023-05-05T04:37:26.006Z,13.50
2023-05-05T04:39:53.834Z,12.00
2023-05-05T04:42:21.466Z,12.25
2023-05-05T04:44:49.164Z,13.50
2023-05-05T04:47:16.806Z,13.50
2023-05-05T04:49:45.081Z,14.00
2023-05-05T04:52:12.780Z,20.00
2023-05-05T04:54:40.659Z,15.75
2023-05-05T04:57:08.583Z,15.75
2023-05-05T04:59:36.930Z,15.25
2023-05-05T05:02:04.712Z,17.00
2023-05-05T05:04:32.479Z,15.50
2023-05-05T05:07:01.537Z,14.25
2023-05-05T05:09:29.115Z,14.00
2023-05-05T05:11:57.143Z,17.00
2023-05-05T05:14:24.880Z,19.00
2023-05-05T05:16:53.757Z,18.50
2023-05-05T05:19:21.420Z,16.00
2023-05-05T05:21:49.217Z,21.50
2023-05-05T05:24:17.199Z,17.50
2023-05-05T05:26:44.864Z,9.75
2023-05-05T05:29:12.976Z,17.00
2023-05-05T05:31:40.693Z,19.50
2023-05-05T05:34:09.370Z,18.00
2023-05-05T05:36:38.764Z,20.50
2023-05-05T05:39:06.527Z,24.25
2023-05-05T05:41:34.316Z,21.75
2023-05-05T05:44:02.025Z,18.00
2023-05-05T05:46:29.726Z,20.50
2023-05-05T05:48:57.465Z,18.00
2023-05-05T05:51:25.179Z,23.00
2023-05-05T05:53:53.049Z,20.00
2023-05-05T05:56:20.667Z,15.00
2023-05-05T05:58:49.987Z,20.00
2023-05-05T06:01:18.038Z,24.75
2023-05-05T06:03:45.901Z,21.00
2023-05-05T06:06:14.070Z,30.00
2023-05-05T06:08:41.797Z,22.75
2023-05-05T06:11:09.425Z,20.00
2023-05-05T06:13:37.499Z,21.00
2023-05-05T06:16:05.150Z,22.50
2023-05-05T06:18:32.899Z,26.50
2023-05-05T06:21:00.653Z,23.50
2023-05-05T06:23:28.347Z,23.25
2023-05-05T06:25:56.244Z,21.00
2023-05-05T06:28:24.100Z,24.00
2023-05-05T06:30:51.984Z,21.50
2023-05-05T06:33:19.687Z,19.25
2023-05-05T06:35:48.081Z,20.75
2023-05-05T06:38:16.128Z,25.00
2023-05-05T06:40:43.850Z,21.75
2023-05-05T06:43:12.034Z,24.50
2023-05-05T06:45:39.636Z,24.50
2023-05-05T06:48:07.378Z,22.50
2023-05-05T06:50:35.175Z,24.75
2023-05-05T06:53:02.881Z,21.75
2023-05-05T06:55:30.550Z,19.50
2023-05-05T06:57:58.378Z,26.25
2023-05-05T07:00:26.049Z,24.25
2023-05-05T07:03:00.155Z,29.50
2023-05-05T07:05:27.927Z,22.00
2023-05-05T07:07:55.874Z,28.75
2023-05-05T07:10:23.869Z,16.40
2023-05-05T07:12:51.807Z,19.80
2023-05-05T07:15:28.728Z,19.60
2023-05-05T07:17:57.829Z,22.40
2023-05-05T07:20:25.826Z,18.80
2023-05-05T07:22:53.511Z,16.20
2023-05-05T07:25:21.707Z,19.20
2023-05-05T07:27:49.378Z,20.20
2023-05-05T07:30:19.086Z,16.00
2023-05-05T07:32:47.584Z,17.40
2023-05-05T07:35:15.375Z,21.00
2023-05-05T07:37:43.035Z,18.20
2023-05-05T07:40:11.278Z,16.40
2023-05-05T07:42:39.385Z,9.40
2023-05-05T07:45:07.629Z,12.40
2023-05-05T07:47:35.518Z,17.60
2023-05-05T07:50:03.724Z,15.20
2023-05-05T07:52:45.376Z,17.20
2023-05-05T07:55:17.977Z,14.60
2023-05-05T07:57:45.757Z,16.60
2023-05-05T08:00:13.893Z,11.60
2023-05-05T08:02:41.844Z,10.20
2023-05-05T08:05:10.074Z,14.60
2023-05-05T08:07:41.749Z,8.40
2023-05-05T08:10:09.676Z,9.20
2023-05-05T08:12:37.511Z,10.60
2023-05-05T08:15:05.526Z,14.40
2023-05-05T08:17:33.769Z,17.60
2023-05-05T08:20:01.545Z,12.60
2023-05-05T08:22:29.426Z,13.80
2023-05-05T08:24:57.862Z,15.40
2023-05-05T08:27:26.005Z,8.40
2023-05-05T08:29:53.787Z,13.80
2023-05-05T08:32:21.997Z,12.20
2023-05-05T08:34:49.803Z,14.60
2023-05-05T08:37:19.570Z,14.00
2023-05-05T08:39:47.262Z,14.00
2023-05-05T08:42:25.502Z,11.80
2023-05-05T08:45:01.304Z,14.00
2023-05-05T08:47:30.647Z,12.80
2023-05-05T08:49:58.542Z,15.20
2023-05-05T08:52:26.480Z,15.00
2023-05-05T08:54:54.390Z,13.20
2023-05-05T08:57:22.489Z,11.60
2023-05-05T08:59:50.986Z,11.40
2023-05-05T09:02:19.034Z,12.00
2023-05-05T09:04:46.931Z,15.00
2023-05-05T09:07:14.951Z,12.20
2023-05-05T09:09:44.240Z,9.00
2023-05-05T09:12:12.600Z,8.00
2023-05-05T09:14:40.896Z,12.20
2023-05-05T09:17:08.969Z,13.00
2023-05-05T09:19:36.926Z,11.00
2023-05-05T09:22:04.809Z,8.60
2023-05-05T09:24:32.891Z,12.40
2023-05-05T09:27:01.915Z,14.60
2023-05-05T09:29:29.753Z,16.80
2023-05-05T09:31:57.462Z,14.60
2023-05-05T09:34:25.620Z,13.20
2023-05-05T09:36:54.282Z,12.60
2023-05-05T09:39:22.261Z,11.60
2023-05-05T09:41:50.015Z,13.00
2023-05-05T09:44:17.935Z,8.60
2023-05-05T09:46:45.914Z,12.20
2023-05-05T09:49:14.381Z,15.00
2023-05-05T09:51:42.633Z,11.00
2023-05-05T09:54:10.390Z,12.80
2023-05-05T09:56:38.164Z,10.20
2023-05-05T09:59:06.101Z,11.40
2023-05-05T10:01:34.365Z,12.40
2023-05-05T10:04:02.150Z,10.60
2023-05-05T10:06:30.111Z,13.00
2023-05-05T10:08:57.910Z,15.00
2023-05-05T10:11:25.820Z,15.60
2023-05-05T10:13:54.817Z,12.60
2023-05-05T10:16:24.238Z,11.80
2023-05-05T10:18:52.142Z,8.20
2023-05-05T10:21:20.191Z,11.80
2023-05-05T10:23:48.776Z,10.00
2023-05-05T10:26:17.288Z,11.40
2023-05-05T10:28:45.344Z,9.80
2023-05-05T10:31:24.475Z,14.80
2023-05-05T10:33:55.742Z,14.20
2023-05-05T10:36:26.944Z,11.00
2023-05-05T10:38:54.837Z,5.00
2023-05-05T10:41:23.013Z,7.20
2023-05-05T10:43:51.580Z,9.00
2023-05-05T10:46:29.864Z,7.40
2023-05-05T10:48:57.876Z,8.00
2023-05-05T10:51:38.756Z,8.40
2023-05-05T10:54:09.206Z,8.20
2023-05-05T10:56:38.014Z,10.00
2023-05-05T10:59:05.990Z,7.00
2023-05-05T11:01:34.249Z,9.60
2023-05-05T11:04:02.195Z,9.80
2023-05-05T11:06:31.296Z,7.40
2023-05-05T11:09:00.216Z,9.20
2023-05-05T11:11:28.090Z,11.80
2023-05-05T11:13:56.106Z,10.20
2023-05-05T11:16:24.490Z,10.00
2023-05-05T11:18:52.537Z,7.20
2023-05-05T11:21:21.312Z,7.00
2023-05-05T11:23:49.507Z,7.40
2023-05-05T11:26:17.387Z,7.00
2023-05-05T11:28:45.137Z,6.60
2023-05-05T11:31:13.091Z,3.20
2023-05-05T11:33:41.797Z,7.80
2023-05-05T11:36:10.684Z,8.00
2023-05-05T11:38:39.247Z,5.80
2023-05-05T11:41:07.229Z,7.80
2023-05-05T11:43:35.183Z,8.00
2023-05-05T11:46:03.757Z,7.80
2023-05-05T11:48:31.578Z,6.80
2023-05-05T11:50:59.403Z,6.00
2023-05-05T11:53:27.148Z,6.00
2023-05-05T11:55:54.969Z,6.60
2023-05-05T11:58:23.162Z,7.20
2023-05-05T12:00:51.799Z,7.60
2023-05-05T12:03:19.662Z,5.00
2023-05-05T12:05:49.026Z,8.00
2023-05-05T12:08:17.069Z,6.20
2023-05-05T12:10:45.518Z,6.80
2023-05-05T12:13:13.854Z,6.00
2023-05-05T12:15:42.313Z,5.40
2023-05-05T12:18:10.082Z,5.80
2023-05-05T12:20:38.327Z,6.00
2023-05-05T12:23:06.927Z,6.00
2023-05-05T12:25:34.690Z,6.00
2023-05-05T12:28:02.608Z,6.00
2023-05-05T12:30:30.538Z,5.20
2023-05-05T12:32:58.480Z,7.80
2023-05-05T12:35:29.269Z,5.00
2023-05-05T12:37:57.291Z,5.80
2023-05-05T12:40:25.139Z,6.40
2023-05-05T12:42:53.953Z,5.80
2023-05-05T12:45:21.990Z,6.00
2023-05-05T12:47:50.346Z,6.20
2023-05-05T12:50:18.197Z,9.00
2023-05-05T12:52:46.115Z,6.80
2023-05-05T12:55:14.009Z,10.40
2023-05-05T12:57:41.783Z,12.00
2023-05-05T13:00:10.756Z,7.60
2023-05-05T13:02:38.589Z,8.40
2023-05-05T13:05:06.748Z,8.00
2023-05-05T13:07:34.731Z,8.00
2023-05-05T13:10:02.932Z,13.50
2023-05-05T13:12:30.984Z,15.00
2023-05-05T13:14:59.162Z,15.00
2023-05-05T13:17:27.116Z,13.00
2023-05-05T13:19:54.942Z,10.00
2023-05-05T13:22:22.798Z,9.50
2023-05-05T13:24:52.660Z,6.25
2023-05-05T13:27:21.463Z,9.00
2023-05-05T13:29:49.454Z,10.50
2023-05-05T13:32:17.273Z,10.75
2023-05-05T13:34:45.123Z,7.00
2023-05-05T13:37:13.410Z,9.00
2023-05-05T13:39:41.292Z,9.25
2023-05-05T13:42:09.178Z,12.00
2023-05-05T13:44:37.163Z,12.75
2023-05-05T13:47:05.085Z,15.00
2023-05-05T13:49:33.977Z,10.00
2023-05-05T13:52:02.402Z,9.75
2023-05-05T13:54:30.185Z,9.75
2023-05-05T13:56:58.168Z,10.00
2023-05-05T13:59:26.828Z,11.50
2023-05-05T14:01:55.770Z,9.50
2023-05-05T14:04:23.724Z,11.00
2023-05-05T14:06:51.881Z,14.00
2023-05-05T14:09:19.702Z,12.00
2023-05-05T14:11:47.904Z,12.00
2023-05-05T14:14:17.050Z,10.00
2023-05-05T14:16:44.884Z,12.00
2023-05-05T14:19:12.664Z,5.50
2023-05-05T14:21:40.540Z,8.00
2023-05-05T14:24:08.286Z,5.00
2023-05-05T14:26:36.604Z,6.75
2023-05-05T14:29:04.640Z,6.00
2023-05-05T14:31:32.561Z,10.50
2023-05-05T14:34:00.481Z,9.00
2023-05-05T14:36:28.518Z,10.00
2023-05-05T14:38:56.935Z,6.25
2023-05-05T14:41:24.925Z,6.50
2023-05-05T14:43:53.004Z,6.00
2023-05-05T14:46:20.956Z,10.00
2023-05-05T14:48:48.919Z,8.50
2023-05-05T14:51:17.970Z,7.80
2023-05-05T14:53:45.862Z,6.00
2023-05-05T14:56:14.151Z,9.00
2023-05-05T14:58:42.009Z,4.00
2023-05-05T15:01:09.869Z,4.40
2023-05-05T15:03:38.123Z,6.00
2023-05-05T15:06:06.365Z,5.50
2023-05-05T15:08:34.210Z,10.00
2023-05-05T15:11:02.087Z,7.75
2023-05-05T15:13:30.254Z,6.00
2023-05-05T15:15:59.201Z,4.00
2023-05-05T15:18:27.600Z,9.00
2023-05-05T15:20:55.655Z,7.50
2023-05-05T15:23:23.480Z,7.00
2023-05-05T15:25:51.360Z,9.25
2023-05-05T15:28:20.026Z,6.00
2023-05-05T15:30:47.878Z,12.00
2023-05-05T15:33:15.696Z,9.00
2023-05-05T15:35:43.659Z,9.20
2023-05-05T15:38:11.549Z,7.00
2023-05-05T15:40:41.506Z,11.00
2023-05-05T15:43:09.353Z,9.00
2023-05-05T15:45:37.266Z,10.00
2023-05-05T15:48:05.206Z,14.50
2023-05-05T15:50:33.288Z,11.50
2023-05-05T15:53:01.648Z,5.50
2023-05-05T15:55:29.734Z,11.00
2023-05-05T15:57:57.921Z,10.50
2023-05-05T16:00:25.854Z,11.25
2023-05-05T16:02:53.767Z,10.50
2023-05-05T16:05:23.090Z,11.00
2023-05-05T16:07:52.046Z,10.50
2023-05-05T16:10:20.677Z,9.50
2023-05-05T16:12:48.815Z,5.50
2023-05-05T16:15:16.764Z,4.50
2023-05-05T16:17:45.139Z,3.00
2023-05-05T16:20:13.193Z,6.00
2023-05-05T16:22:41.393Z,3.00
2023-05-05T16:25:10.085Z,1.50
2023-05-05T16:27:38.359Z,4.00
2023-05-05T16:30:06.787Z,4.00
2023-05-05T16:32:34.682Z,3.00
2023-05-05T16:35:02.830Z,2.00
2023-05-05T16:37:30.637Z,6.00
2023-05-05T16:39:58.861Z,2.00
2023-05-05T16:42:27.612Z,2.00
2023-05-05T16:44:55.510Z,3.50
2023-05-05T16:47:23.688Z,1.00
2023-05-05T16:49:52.974Z,2.00
2023-05-05T16:52:20.823Z,3.00
2023-05-05T16:54:55.928Z,3.75
2023-05-05T16:57:23.930Z,6.00
2023-05-05T16:59:51.731Z,3.00
2023-05-05T17:02:19.961Z,4.50
2023-05-05T17:04:47.920Z,4.50
2023-05-05T17:07:16.183Z,5.00
2023-05-05T17:09:44.053Z,4.00
2023-05-05T17:12:11.844Z,4.00
2023-05-05T17:14:39.873Z,6.50
2023-05-05T17:17:07.816Z,6.00
2023-05-05T17:19:36.151Z,5.50
2023-05-05T17:22:04.006Z,4.00
2023-05-05T17:24:32.076Z,4.00
2023-05-05T17:26:59.956Z,6.00
2023-05-05T17:29:28.036Z,8.75
2023-05-05T17:31:55.986Z,5.00
2023-05-05T17:34:23.829Z,3.25
2023-05-05T17:36:51.713Z,2.50
2023-05-05T17:39:19.690Z,1.00
2023-05-05T17:41:47.644Z,3.00
2023-05-05T17:44:16.616Z,1.00
2023-05-05T17:46:44.718Z,4.00
2023-05-05T17:49:12.522Z,3.00
2023-05-05T17:51:40.823Z,1.50
2023-05-05T17:54:08.661Z,2.50
2023-05-05T17:56:37.421Z,3.00
2023-05-05T17:59:05.269Z,2.00
2023-05-05T18:01:33.356Z,2.50
2023-05-05T18:04:01.384Z,3.00
2023-05-05T18:06:29.607Z,3.50
2023-05-05T18:08:58.718Z,3.00
2023-05-05T18:11:29.100Z,2.00
2023-05-05T18:13:57.427Z,3.00
2023-05-05T18:16:25.588Z,3.00
2023-05-05T18:18:53.606Z,3.00
2023-05-05T18:21:22.001Z,3.00
2023-05-05T18:23:50.334Z,4.00
2023-05-05T18:26:18.342Z,6.50
2023-05-05T18:28:46.173Z,5.50
2023-05-05T18:31:14.281Z,4.50
2023-05-05T18:33:42.745Z,6.00
2023-05-05T18:36:11.189Z,6.00
2023-05-05T18:38:39.269Z,2.50
2023-05-05T18:41:07.499Z,4.00
2023-05-05T18:43:35.283Z,7.00
2023-05-05T18:46:03.615Z,5.00
2023-05-05T18:48:31.390Z,5.50
2023-05-05T18:50:59.149Z,3.50
2023-05-05T18:53:27.162Z,6.50
2023-05-05T18:55:54.950Z,8.00
2023-05-05T18:58:24.304Z,6.75
2023-05-05T19:00:52.536Z,7.00
2023-05-05T19:03:20.438Z,7.50
2023-05-05T19:05:48.128Z,7.00
2023-05-05T19:08:16.107Z,7.00
2023-05-05T19:10:44.558Z,8.50
2023-05-05T19:13:12.491Z,7.00
2023-05-05T19:15:40.577Z,4.00
2023-05-05T19:18:08.577Z,7.00
2023-05-05T19:20:38.790Z,7.00
2023-05-05T19:23:07.804Z,5.75
2023-05-05T19:25:35.601Z,6.75
2023-05-05T19:28:03.373Z,7.00
2023-05-05T19:30:31.573Z,4.25
2023-05-05T19:32:59.434Z,6.25
2023-05-05T19:35:29.696Z,8.00
2023-05-05T19:37:57.629Z,7.50
2023-05-05T19:40:25.341Z,9.00
2023-05-05T19:42:53.535Z,13.00
2023-05-05T19:45:21.594Z,17.50
2023-05-05T19:47:50.000Z,9.25
2023-05-05T19:50:17.903Z,14.50
2023-05-05T19:52:45.933Z,15.50
2023-05-05T19:55:14.270Z,9.25
2023-05-05T19:57:42.145Z,7.00
2023-05-05T20:00:11.273Z,10.00
2023-05-05T20:02:39.418Z,10.00
2023-05-05T20:05:07.377Z,9.00
2023-05-05T20:07:35.249Z,13.00
2023-05-05T20:10:03.067Z,13.00
2023-05-05T20:12:31.755Z,9.50
2023-05-05T20:14:59.687Z,11.50
2023-05-05T20:17:27.532Z,10.75
2023-05-05T20:19:55.359Z,9.50
2023-05-05T20:22:23.304Z,7.25
2023-05-05T20:24:51.946Z,14.50
2023-05-05T20:27:21.142Z,12.00
2023-05-05T20:29:49.165Z,6.25
2023-05-05T20:32:20.653Z,12.50
2023-05-05T20:34:48.970Z,11.00
2023-05-05T20:37:17.421Z,9.00
2023-05-05T20:39:45.256Z,10.50
2023-05-05T20:42:13.013Z,9.50
2023-05-05T20:44:41.468Z,7.75
2023-05-05T20:47:09.330Z,8.00
2023-05-05T20:49:39.122Z,6.25
2023-05-05T20:52:07.141Z,10.50
2023-05-05T20:54:34.967Z,9.50
2023-05-05T20:57:03.283Z,5.50
2023-05-05T20:59:31.130Z,6.25
2023-05-05T21:01:59.621Z,9.00
2023-05-05T21:04:27.723Z,7.00
2023-05-05T21:06:55.629Z,6.00
2023-05-05T21:09:23.546Z,15.50
2023-05-05T21:11:51.880Z,10.75
2023-05-05T21:14:20.503Z,10.50
2023-05-05T21:16:48.503Z,10.00
2023-05-05T21:19:16.593Z,8.50
2023-05-05T21:21:44.585Z,8.00
2023-05-05T21:24:13.235Z,6.50
2023-05-05T21:26:41.580Z,11.50
2023-05-05T21:29:09.495Z,9.75
2023-05-05T21:31:37.328Z,6.75
2023-05-05T21:34:05.138Z,9.25
2023-05-05T21:36:34.106Z,10.25
2023-05-05T21:39:02.227Z,6.00
2023-05-05T21:41:30.074Z,3.50
2023-05-05T21:43:57.906Z,7.50
2023-05-05T21:46:25.688Z,11.00
2023-05-05T21:48:53.683Z,6.00
2023-05-05T21:51:22.805Z,6.75
2023-05-05T21:53:50.629Z,10.00
2023-05-05T21:56:18.732Z,11.50
2023-05-05T21:58:46.525Z,9.25
2023-05-05T22:01:14.450Z,9.75
2023-05-05T22:03:44.215Z,11.75
2023-05-05T22:06:12.704Z,6.75
2023-05-05T22:08:40.564Z,8.00
2023-05-05T22:11:08.344Z,7.50
2023-05-05T22:13:36.079Z,12.00
2023-05-05T22:16:04.682Z,9.50
2023-05-05T22:18:32.872Z,14.00
2023-05-05T22:21:00.776Z,6.25
2023-05-05T22:23:28.489Z,13.00
2023-05-05T22:25:57.072Z,9.00
2023-05-05T22:28:25.253Z,10.25
2023-05-05T22:30:52.921Z,12.25
2023-05-05T22:33:20.584Z,9.50
2023-05-05T22:35:48.340Z,9.00
2023-05-05T22:38:16.036Z,8.50
2023-05-05T22:40:45.967Z,12.75
2023-05-05T22:43:13.762Z,6.50
2023-05-05T22:45:41.434Z,12.50
2023-05-05T22:48:09.150Z,13.00
2023-05-05T22:50:36.894Z,14.00
2023-05-05T22:53:04.875Z,11.75
2023-05-05T22:55:32.610Z,13.50
2023-05-05T22:58:00.365Z,6.25
2023-05-05T23:00:28.463Z,10.25
2023-05-05T23:02:56.340Z,12.50
2023-05-05T23:05:24.664Z,13.00
2023-05-05T23:07:52.452Z,12.25
2023-05-05T23:10:20.066Z,11.00
2023-05-05T23:12:47.817Z,10.25
2023-05-05T23:15:15.896Z,9.00
2023-05-05T23:17:43.967Z,9.00
2023-05-05T23:20:13.299Z,9.50
2023-05-05T23:22:40.930Z,8.50
2023-05-05T23:25:09.217Z,10.00
2023-05-05T23:27:37.035Z,9.00
2023-05-05T23:30:05.204Z,11.50
2023-05-05T23:32:32.969Z,13.25
2023-05-05T23:35:01.280Z,14.50
2023-05-05T23:37:28.920Z,9.25
2023-05-05T23:39:56.533Z,9.00
2023-05-05T23:42:24.562Z,10.50
2023-05-05T23:44:52.196Z,11.00
2023-05-05T23:47:20.122Z,11.25
2023-05-05T23:49:47.866Z,9.00
2023-05-05T23:52:15.502Z,8.75
2023-05-05T23:54:43.487Z,5.75
2023-05-05T23:57:11.362Z,14.00
2023-05-05T23:59:38.927Z,12.50
